createdAt,value
2018-06-13T00:00:35.894Z,11.10
2018-06-13T00:03:08.318Z,7.83
2018-06-13T00:05:40.998Z,8.57
2018-06-13T00:08:13.410Z,8.90
2018-06-13T00:10:46.094Z,9.10
2018-06-13T00:13:18.520Z,8.13
2018-06-13T00:15:51.146Z,9.97
2018-06-13T00:18:23.893Z,11.37
2018-06-13T00:20:56.399Z,10.93
2018-06-13T00:23:29.006Z,11.37
2018-06-13T00:26:01.718Z,9.47
2018-06-13T00:28:34.409Z,10.27
2018-06-13T00:31:06.826Z,10.50
2018-06-13T00:33:39.226Z,11.03
2018-06-13T00:36:11.646Z,9.27
2018-06-13T00:38:43.901Z,11.17
2018-06-13T00:41:16.298Z,11.10
2018-06-13T00:43:48.969Z,14.43
2018-06-13T00:46:21.626Z,16.83
2018-06-13T00:48:54.325Z,14.97
2018-06-13T00:51:26.976Z,13.77
2018-06-13T00:53:59.390Z,15.60
2018-06-13T00:56:32.117Z,9.47
2018-06-13T00:59:04.827Z,14.23
2018-06-13T01:01:37.239Z,12.60
2018-06-13T01:04:09.885Z,11.77
2018-06-13T01:06:42.284Z,13.40
2018-06-13T01:09:14.717Z,12.97
2018-06-13T01:11:47.120Z,11.37
2018-06-13T01:14:19.535Z,10.70
2018-06-13T01:16:51.957Z,12.33
2018-06-13T01:19:24.385Z,12.50
2018-06-13T01:21:56.808Z,14.30
2018-06-13T01:24:29.333Z,10.80
2018-06-13T01:27:01.734Z,13.80
2018-06-13T01:29:33.969Z,13.53
2018-06-13T01:32:06.694Z,14.63
2018-06-13T01:34:39.101Z,10.63
2018-06-13T01:37:11.510Z,15.47
2018-06-13T01:39:43.921Z,11.80
2018-06-13T01:42:16.318Z,11.60
2018-06-13T01:44:48.734Z,13.00
2018-06-13T01:47:21.169Z,11.03
2018-06-13T01:49:53.598Z,11.10
2018-06-13T01:52:26.646Z,12.43
2018-06-13T01:54:59.087Z,12.67
2018-06-13T01:57:31.738Z,15.90
2018-06-13T02:00:04.478Z,10.20
2018-06-13T02:02:37.171Z,8.50
2018-06-13T02:05:09.842Z,10.60
2018-06-13T02:07:42.350Z,12.50
2018-06-13T02:10:14.997Z,11.07
2018-06-13T02:12:47.709Z,13.07
2018-06-13T02:15:20.133Z,12.03
2018-06-13T02:17:52.541Z,9.20
2018-06-13T02:20:25.677Z,11.43
2018-06-13T02:22:58.077Z,12.40
2018-06-13T02:25:30.498Z,11.23
2018-06-13T02:28:02.921Z,10.00
2018-06-13T02:30:35.856Z,8.63
2018-06-13T02:33:08.258Z,7.17
2018-06-13T02:35:40.686Z,9.53
2018-06-13T02:38:13.084Z,10.00
2018-06-13T02:40:45.509Z,11.63
2018-06-13T02:43:17.928Z,10.23
2018-06-13T02:45:50.670Z,8.63
2018-06-13T02:48:23.322Z,10.00
2018-06-13T02:50:56.021Z,9.03
2018-06-13T02:53:28.456Z,12.83
2018-06-13T02:56:00.869Z,7.40
2018-06-13T02:58:33.299Z,11.23
2018-06-13T03:01:05.693Z,9.37
2018-06-13T03:03:38.110Z,7.90
2018-06-13T03:06:10.857Z,10.53
2018-06-13T03:08:43.775Z,6.40
2018-06-13T03:11:16.190Z,9.07
2018-06-13T03:13:48.925Z,8.17
2018-06-13T03:16:21.345Z,8.53
2018-06-13T03:18:53.808Z,6.60
2018-06-13T03:21:26.518Z,8.27
2018-06-13T03:23:58.954Z,6.90
2018-06-13T03:26:31.601Z,8.83
2018-06-13T03:29:04.285Z,6.60
2018-06-13T03:31:36.693Z,7.90
2018-06-13T03:34:09.141Z,8.33
2018-06-13T03:36:41.563Z,5.53
2018-06-13T03:39:13.985Z,8.80
2018-06-13T03:41:46.381Z,5.43
2018-06-13T03:44:19.105Z,7.07
2018-06-13T03:46:51.594Z,7.50
2018-06-13T03:49:24.019Z,7.50
2018-06-13T03:51:56.422Z,7.23
2018-06-13T03:54:29.100Z,7.47
2018-06-13T03:57:01.514Z,7.20
2018-06-13T03:59:33.924Z,7.13
2018-06-13T04:02:06.925Z,6.33
2018-06-13T04:04:39.357Z,11.63
2018-06-13T04:07:12.223Z,9.50
2018-06-13T04:09:44.953Z,7.20
2018-06-13T04:12:17.346Z,9.20
2018-06-13T04:14:50.050Z,6.17
2018-06-13T04:17:22.489Z,7.97
2018-06-13T04:19:55.181Z,9.00
2018-06-13T04:22:27.626Z,8.00
2018-06-13T04:25:00.001Z,6.77
2018-06-13T04:27:32.390Z,6.97
2018-06-13T04:30:04.810Z,9.57
2018-06-13T04:32:37.258Z,5.37
2018-06-13T04:35:09.905Z,7.40
2018-06-13T04:37:42.310Z,9.77
2018-06-13T04:40:14.778Z,7.73
2018-06-13T04:42:47.173Z,8.77
2018-06-13T04:45:19.581Z,8.97
2018-06-13T04:47:52.305Z,9.07
2018-06-13T04:50:25.189Z,8.50
2018-06-13T04:52:57.676Z,10.23
2018-06-13T04:55:30.101Z,5.93
2018-06-13T04:58:02.611Z,6.93
2018-06-13T05:00:35.046Z,8.47
2018-06-13T05:03:07.722Z,12.87
2018-06-13T05:05:40.141Z,10.10
2018-06-13T05:08:13.126Z,8.50
2018-06-13T05:10:45.549Z,7.13
2018-06-13T05:13:18.481Z,10.37
2018-06-13T05:15:51.158Z,5.70
2018-06-13T05:18:23.614Z,9.77
2018-06-13T05:20:56.061Z,7.20
2018-06-13T05:23:28.474Z,8.07
2018-06-13T05:26:01.235Z,7.23
2018-06-13T05:28:33.954Z,7.27
2018-06-13T05:31:06.620Z,10.67
2018-06-13T05:33:39.062Z,8.73
2018-06-13T05:36:11.493Z,6.07
2018-06-13T05:38:43.905Z,12.33
2018-06-13T05:41:16.411Z,11.80
2018-06-13T05:43:48.930Z,8.43
2018-06-13T05:46:21.357Z,8.43
2018-06-13T05:48:53.792Z,8.60
2018-06-13T05:51:26.732Z,7.17
2018-06-13T05:53:59.577Z,9.60
2018-06-13T05:56:32.245Z,9.70
2018-06-13T05:59:04.653Z,7.27
2018-06-13T06:01:37.409Z,6.97
2018-06-13T06:04:10.078Z,9.00
2018-06-13T06:06:42.584Z,6.77
2018-06-13T06:09:14.989Z,6.97
2018-06-13T06:11:47.442Z,8.23
2018-06-13T06:14:19.837Z,9.60
2018-06-13T06:16:52.582Z,7.93
2018-06-13T06:19:25.054Z,10.70
2018-06-13T06:21:57.461Z,8.77
2018-06-13T06:24:29.861Z,7.27
2018-06-13T06:27:02.566Z,8.83
2018-06-13T06:29:35.209Z,11.43
2018-06-13T06:32:08.153Z,9.27
2018-06-13T06:34:40.547Z,13.80
2018-06-13T06:37:12.969Z,6.80
2018-06-13T06:39:45.605Z,7.93
2018-06-13T06:42:18.087Z,7.20
2018-06-13T06:44:50.484Z,10.87
2018-06-13T06:47:23.161Z,8.37
2018-06-13T06:49:55.590Z,12.17
2018-06-13T06:52:28.102Z,9.40
2018-06-13T06:55:00.510Z,9.67
2018-06-13T06:57:32.986Z,8.43
2018-06-13T07:00:05.245Z,13.70
2018-06-13T07:02:37.715Z,11.27
2018-06-13T07:05:10.369Z,11.77
2018-06-13T07:07:43.072Z,16.87
2018-06-13T07:10:15.491Z,12.17
2018-06-13T07:12:47.948Z,11.83
2018-06-13T07:15:20.350Z,9.43
2018-06-13T07:17:52.770Z,9.23
2018-06-13T07:20:25.456Z,9.47
2018-06-13T07:22:57.963Z,11.60
2018-06-13T07:25:30.381Z,11.90
2018-06-13T07:28:02.825Z,10.50
2018-06-13T07:30:35.518Z,9.60
2018-06-13T07:33:08.546Z,12.10
2018-06-13T07:35:40.954Z,13.00
2018-06-13T07:38:13.402Z,11.17
2018-06-13T07:40:45.811Z,14.97
2018-06-13T07:43:18.646Z,18.53
2018-06-13T07:45:51.070Z,20.73
2018-06-13T07:48:23.530Z,13.27
2018-06-13T07:50:55.961Z,12.43
2018-06-13T07:53:28.430Z,13.63
2018-06-13T07:56:00.846Z,16.83
2018-06-13T07:58:33.266Z,14.20
2018-06-13T08:01:05.967Z,18.07
2018-06-13T08:03:39.053Z,15.20
2018-06-13T08:06:11.481Z,17.33
2018-06-13T08:08:44.237Z,21.47
2018-06-13T08:11:16.633Z,19.13
2018-06-13T08:13:49.049Z,17.17
2018-06-13T08:16:21.777Z,13.67
2018-06-13T08:18:54.904Z,12.40
2018-06-13T08:21:27.304Z,24.07
2018-06-13T08:23:59.722Z,16.07
2018-06-13T08:26:32.133Z,13.93
2018-06-13T08:29:04.561Z,12.87
2018-06-13T08:31:36.994Z,13.20
2018-06-13T08:34:09.417Z,9.93
2018-06-13T08:36:42.098Z,15.40
2018-06-13T08:39:14.523Z,10.47
2018-06-13T08:41:47.183Z,8.80
2018-06-13T08:44:19.614Z,12.43
2018-06-13T08:46:52.030Z,12.47
2018-06-13T08:49:24.796Z,13.13
2018-06-13T08:51:57.772Z,16.40
2018-06-13T08:54:30.213Z,19.47
2018-06-13T08:57:02.622Z,9.27
2018-06-13T08:59:35.048Z,11.87
2018-06-13T09:02:07.466Z,10.47
2018-06-13T09:04:39.918Z,9.30
2018-06-13T09:07:12.335Z,9.00
2018-06-13T09:09:44.761Z,10.17
2018-06-13T09:12:17.165Z,8.93
2018-06-13T09:14:49.585Z,8.80
2018-06-13T09:17:21.990Z,7.43
2018-06-13T09:19:54.669Z,8.00
2018-06-13T09:22:27.076Z,7.67
2018-06-13T09:24:59.749Z,8.93
2018-06-13T09:27:32.374Z,9.40
2018-06-13T09:30:04.812Z,10.60
2018-06-13T09:32:37.225Z,8.23
2018-06-13T09:35:09.751Z,12.33
2018-06-13T09:37:42.547Z,7.40
2018-06-13T09:40:15.189Z,8.17
2018-06-13T09:42:47.593Z,11.57
2018-06-13T09:45:20.066Z,10.47
2018-06-13T09:47:52.528Z,8.17
2018-06-13T09:50:25.270Z,15.60
2018-06-13T09:52:57.679Z,9.00
2018-06-13T09:55:30.130Z,9.20
2018-06-13T09:58:02.834Z,9.80
2018-06-13T10:00:35.594Z,7.77
2018-06-13T10:03:07.990Z,8.20
2018-06-13T10:05:40.405Z,9.03
2018-06-13T10:08:12.834Z,10.90
2018-06-13T10:10:45.307Z,6.80
2018-06-13T10:13:17.953Z,7.13
2018-06-13T10:15:50.390Z,12.87
2018-06-13T10:18:22.815Z,6.90
2018-06-13T10:20:55.252Z,12.07
2018-06-13T10:23:27.981Z,6.37
2018-06-13T10:26:00.457Z,5.07
2018-06-13T10:28:33.138Z,6.33
2018-06-13T10:31:05.566Z,7.97
2018-06-13T10:33:38.260Z,8.43
2018-06-13T10:36:10.978Z,6.83
2018-06-13T10:38:43.626Z,7.97
2018-06-13T10:41:16.598Z,8.73
2018-06-13T10:43:49.014Z,5.60
2018-06-13T10:46:21.441Z,7.03
2018-06-13T10:48:54.137Z,11.40
2018-06-13T10:51:26.541Z,12.90
2018-06-13T10:53:58.960Z,7.47
2018-06-13T10:56:31.366Z,6.83
2018-06-13T10:59:04.053Z,5.80
2018-06-13T11:01:36.714Z,4.33
2018-06-13T11:04:09.378Z,3.93
2018-06-13T11:06:42.062Z,3.80
2018-06-13T11:09:14.508Z,5.53
2018-06-13T11:11:47.942Z,5.50
2018-06-13T11:14:20.417Z,3.53
2018-06-13T11:16:53.317Z,5.50
2018-06-13T11:19:25.737Z,5.03
2018-06-13T11:21:58.145Z,3.50
2018-06-13T11:24:30.634Z,3.53
2018-06-13T11:27:03.035Z,7.93
2018-06-13T11:29:35.768Z,4.37
2018-06-13T11:32:08.186Z,4.30
2018-06-13T11:34:40.941Z,4.77
2018-06-13T11:37:13.341Z,4.83
2018-06-13T11:39:46.054Z,6.50
2018-06-13T11:42:18.749Z,4.53
2018-06-13T11:44:51.161Z,8.33
2018-06-13T11:47:23.823Z,3.20
2018-06-13T11:49:56.238Z,6.83
2018-06-13T11:52:28.667Z,5.90
2018-06-13T11:55:01.141Z,6.13
2018-06-13T11:57:33.781Z,5.23
2018-06-13T12:00:06.458Z,4.50
2018-06-13T12:02:39.382Z,14.40
2018-06-13T12:05:11.810Z,4.63
2018-06-13T12:07:44.213Z,3.97
2018-06-13T12:10:16.871Z,6.53
2018-06-13T12:12:49.274Z,4.63
2018-06-13T12:15:21.768Z,5.00
2018-06-13T12:17:54.206Z,5.27
2018-06-13T12:20:26.613Z,16.50
2018-06-13T12:22:59.009Z,10.37
2018-06-13T12:25:31.954Z,8.53
2018-06-13T12:28:04.601Z,15.73
2018-06-13T12:30:37.014Z,4.93
2018-06-13T12:33:09.405Z,8.27
2018-06-13T12:35:41.911Z,10.17
2018-06-13T12:38:14.589Z,5.97
2018-06-13T12:40:47.281Z,8.67
2018-06-13T12:43:19.956Z,6.67
2018-06-13T12:45:52.373Z,5.70
2018-06-13T12:48:25.110Z,13.20
2018-06-13T12:50:57.579Z,5.10
2018-06-13T12:53:30.403Z,5.03
2018-06-13T12:56:03.155Z,7.33
2018-06-13T12:58:35.549Z,5.63
2018-06-13T13:01:08.230Z,6.40
2018-06-13T13:03:40.958Z,6.47
2018-06-13T13:06:14.125Z,13.30
2018-06-13T13:08:46.525Z,10.50
2018-06-13T13:11:18.950Z,3.97
2018-06-13T13:13:51.374Z,6.23
2018-06-13T13:16:24.085Z,6.93
2018-06-13T13:18:56.500Z,3.77
2018-06-13T13:21:29.146Z,4.93
2018-06-13T13:24:01.556Z,3.93
2018-06-13T13:26:33.969Z,3.43
2018-06-13T13:29:06.407Z,5.53
2018-06-13T13:31:38.822Z,9.50
2018-06-13T13:34:11.219Z,5.47
2018-06-13T13:36:43.968Z,7.80
2018-06-13T13:39:16.764Z,10.97
2018-06-13T13:41:49.188Z,7.07
2018-06-13T13:44:21.605Z,3.90
2018-06-13T13:46:54.022Z,3.67
2018-06-13T13:49:26.440Z,5.07
2018-06-13T13:51:58.868Z,11.53
2018-06-13T13:54:31.269Z,7.80
2018-06-13T13:57:04.302Z,8.20
2018-06-13T13:59:36.725Z,7.30
2018-06-13T14:02:09.129Z,5.20
2018-06-13T14:04:41.886Z,7.93
2018-06-13T14:07:14.570Z,5.63
2018-06-13T14:09:46.962Z,7.53
2018-06-13T14:12:19.415Z,7.17
2018-06-13T14:14:51.789Z,5.63
2018-06-13T14:17:24.206Z,5.20
2018-06-13T14:19:56.637Z,7.00
2018-06-13T14:22:29.106Z,6.83
2018-06-13T14:25:01.495Z,7.10
2018-06-13T14:27:34.169Z,10.20
2018-06-13T14:30:06.575Z,7.03
2018-06-13T14:32:39.005Z,4.50
2018-06-13T14:35:11.405Z,4.40
2018-06-13T14:37:44.184Z,3.93
2018-06-13T14:40:16.597Z,3.23
2018-06-13T14:42:49.018Z,5.27
2018-06-13T14:45:21.917Z,3.93
2018-06-13T14:47:54.598Z,6.33
2018-06-13T14:50:26.817Z,3.67
2018-06-13T14:52:59.517Z,4.47
2018-06-13T14:55:31.920Z,3.83
2018-06-13T14:58:04.330Z,6.27
2018-06-13T15:00:36.725Z,4.87
2018-06-13T15:03:09.408Z,4.77
2018-06-13T15:05:41.915Z,4.63
2018-06-13T15:08:14.696Z,8.47
2018-06-13T15:10:47.342Z,5.43
2018-06-13T15:13:19.792Z,5.07
2018-06-13T15:15:52.487Z,5.30
2018-06-13T15:18:24.914Z,6.63
2018-06-13T15:20:57.338Z,5.43
2018-06-13T15:23:29.786Z,4.47
2018-06-13T15:26:02.494Z,5.57
2018-06-13T15:28:34.921Z,8.10
2018-06-13T15:31:07.574Z,4.13
2018-06-13T15:33:40.249Z,7.23
2018-06-13T15:36:13.236Z,5.50
2018-06-13T15:38:46.342Z,6.40
2018-06-13T15:41:19.006Z,4.63
2018-06-13T15:43:51.435Z,4.03
2018-06-13T15:46:24.128Z,6.67
2018-06-13T15:48:56.579Z,4.47
2018-06-13T15:51:29.002Z,7.43
2018-06-13T15:54:01.418Z,5.07
2018-06-13T15:56:33.850Z,3.77
2018-06-13T15:59:06.833Z,5.57
2018-06-13T16:01:39.253Z,4.73
2018-06-13T16:04:11.985Z,2.53
2018-06-13T16:06:44.430Z,7.07
2018-06-13T16:09:17.113Z,5.57
2018-06-13T16:11:49.569Z,4.23
2018-06-13T16:14:21.998Z,5.33
2018-06-13T16:16:54.766Z,4.10
2018-06-13T16:19:27.235Z,3.93
2018-06-13T16:21:59.648Z,2.60
2018-06-13T16:24:32.083Z,4.60
2018-06-13T16:27:04.547Z,6.03
2018-06-13T16:29:37.002Z,5.27
2018-06-13T16:32:09.690Z,7.80
2018-06-13T16:34:42.114Z,6.20
2018-06-13T16:37:14.538Z,3.87
2018-06-13T16:39:47.305Z,4.47
2018-06-13T16:42:20.031Z,5.00
2018-06-13T16:44:52.762Z,4.40
2018-06-13T16:47:25.447Z,8.97
2018-06-13T16:49:57.874Z,4.63
2018-06-13T16:52:41.629Z,7.27
2018-06-13T16:55:14.560Z,3.63
2018-06-13T16:57:46.970Z,5.53
2018-06-13T17:00:19.417Z,4.63
2018-06-13T17:02:52.174Z,3.30
2018-06-13T17:05:24.879Z,3.87
2018-06-13T17:07:57.634Z,4.50
2018-06-13T17:10:30.035Z,7.03
2018-06-13T17:13:02.459Z,6.00
2018-06-13T17:15:34.893Z,6.77
2018-06-13T17:18:07.329Z,2.77
2018-06-13T17:20:39.995Z,6.80
2018-06-13T17:23:12.413Z,7.83
2018-06-13T17:25:44.866Z,7.10
2018-06-13T17:28:17.349Z,5.67
2018-06-13T17:30:50.122Z,4.23
2018-06-13T17:33:22.538Z,6.70
2018-06-13T17:35:55.248Z,3.10
2018-06-13T17:38:28.164Z,7.37
2018-06-13T17:41:00.849Z,7.87
2018-06-13T17:43:33.253Z,3.87
2018-06-13T17:46:05.654Z,4.50
2018-06-13T17:48:38.370Z,6.50
2018-06-13T17:51:10.797Z,5.53
2018-06-13T17:53:43.224Z,6.00
2018-06-13T17:56:15.632Z,5.03
2018-06-13T17:58:48.341Z,7.30
2018-06-13T18:01:21.011Z,5.73
2018-06-13T18:03:53.432Z,6.93
2018-06-13T18:06:26.100Z,5.47
2018-06-13T18:08:58.850Z,4.63
2018-06-13T18:11:31.539Z,4.60
2018-06-13T18:14:04.003Z,4.60
2018-06-13T18:16:36.504Z,5.20
2018-06-13T18:19:08.940Z,6.67
2018-06-13T18:21:41.350Z,6.10
2018-06-13T18:24:13.881Z,6.00
2018-06-13T18:26:46.551Z,3.63
2018-06-13T18:29:19.590Z,5.57
2018-06-13T18:31:52.270Z,5.13
2018-06-13T18:34:24.669Z,3.80
2018-06-13T18:36:57.080Z,3.63
2018-06-13T18:39:30.006Z,7.47
2018-06-13T18:42:02.745Z,6.10
2018-06-13T18:44:35.261Z,6.80
2018-06-13T18:47:07.705Z,5.90
2018-06-13T18:49:40.393Z,6.87
2018-06-13T18:52:12.874Z,5.03
2018-06-13T18:54:45.274Z,20.43
2018-06-13T18:57:17.692Z,5.77
2018-06-13T18:59:50.388Z,6.00
2018-06-13T19:02:22.786Z,8.00
2018-06-13T19:04:55.522Z,5.60
2018-06-13T19:07:27.946Z,4.20
2018-06-13T19:10:00.710Z,8.27
2018-06-13T19:12:33.111Z,4.43
2018-06-13T19:15:05.531Z,6.63
2018-06-13T19:17:37.938Z,5.17
2018-06-13T19:20:10.917Z,7.40
2018-06-13T19:22:43.667Z,5.90
2018-06-13T19:25:16.350Z,6.70
2018-06-13T19:27:48.767Z,6.77
2018-06-13T19:30:21.577Z,5.83
2018-06-13T19:32:53.986Z,4.83
2018-06-13T19:35:26.485Z,6.57
2018-06-13T19:37:58.889Z,6.77
2018-06-13T19:40:31.358Z,4.87
2018-06-13T19:43:04.073Z,5.20
2018-06-13T19:45:36.498Z,9.17
2018-06-13T19:48:09.150Z,5.53
2018-06-13T19:50:41.830Z,6.27
2018-06-13T19:53:14.465Z,7.70
2018-06-13T19:55:46.882Z,7.07
2018-06-13T19:58:19.617Z,7.07
2018-06-13T20:00:52.067Z,8.03
2018-06-13T20:03:24.516Z,6.50
2018-06-13T20:05:57.489Z,9.93
2018-06-13T20:08:29.892Z,9.73
2018-06-13T20:11:03.321Z,10.40
2018-06-13T20:13:35.666Z,9.60
2018-06-13T20:16:08.094Z,6.83
2018-06-13T20:18:40.787Z,9.27
2018-06-13T20:21:13.157Z,6.50
2018-06-13T20:23:45.590Z,9.67
2018-06-13T20:26:18.010Z,8.97
2018-06-13T20:28:50.511Z,9.57
2018-06-13T20:31:22.971Z,10.27
2018-06-13T20:33:55.420Z,10.87
2018-06-13T20:36:27.863Z,9.47
2018-06-13T20:39:00.315Z,12.17
2018-06-13T20:41:32.743Z,6.23
2018-06-13T20:44:05.258Z,9.43
2018-06-13T20:46:37.791Z,7.57
2018-06-13T20:49:10.222Z,10.80
2018-06-13T20:51:42.918Z,12.13
2018-06-13T20:54:15.320Z,8.03
2018-06-13T20:56:47.891Z,8.97
2018-06-13T20:59:20.294Z,9.27
2018-06-13T21:01:52.704Z,12.37
2018-06-13T21:04:25.186Z,11.00
2018-06-13T21:06:57.996Z,6.33
2018-06-13T21:09:30.430Z,8.83
2018-06-13T21:12:02.849Z,12.43
2018-06-13T21:14:35.318Z,11.97
2018-06-13T21:17:07.774Z,9.60
2018-06-13T21:19:40.178Z,6.60
2018-06-13T21:22:12.721Z,8.83
2018-06-13T21:24:44.951Z,11.20
2018-06-13T21:27:17.386Z,10.73
2018-06-13T21:29:50.141Z,8.23
2018-06-13T21:32:22.545Z,10.20
2018-06-13T21:34:55.303Z,7.67
2018-06-13T21:37:27.885Z,10.17
2018-06-13T21:40:00.310Z,6.07
2018-06-13T21:42:33.086Z,6.57
2018-06-13T21:45:05.614Z,9.30
2018-06-13T21:47:37.874Z,9.90
2018-06-13T21:50:10.766Z,12.00
2018-06-13T21:52:43.553Z,13.67
2018-06-13T21:55:15.985Z,6.70
2018-06-13T21:57:48.401Z,9.00
2018-06-13T22:00:21.084Z,10.57
2018-06-13T22:02:53.513Z,12.17
2018-06-13T22:05:26.134Z,19.07
2018-06-13T22:07:58.567Z,12.47
2018-06-13T22:10:31.282Z,10.20
2018-06-13T22:13:03.953Z,10.70
2018-06-13T22:15:36.374Z,9.93
2018-06-13T22:18:09.109Z,13.17
2018-06-13T22:20:41.785Z,11.33
2018-06-13T22:23:14.538Z,12.33
2018-06-13T22:25:47.068Z,13.80
2018-06-13T22:28:19.478Z,13.30
2018-06-13T22:30:51.893Z,11.13
2018-06-13T22:33:24.293Z,17.40
2018-06-13T22:35:56.725Z,11.67
2018-06-13T22:38:29.133Z,8.43
2018-06-13T22:41:01.549Z,12.50
2018-06-13T22:43:33.949Z,8.57
2018-06-13T22:46:06.373Z,13.20
2018-06-13T22:48:38.807Z,13.17
2018-06-13T22:51:11.244Z,14.87
2018-06-13T22:53:43.655Z,13.73
2018-06-13T22:56:16.080Z,13.90
2018-06-13T22:58:48.484Z,12.27
2018-06-13T23:01:20.910Z,14.13
2018-06-13T23:03:53.329Z,16.20
2018-06-13T23:06:25.980Z,17.60
2018-06-13T23:08:58.381Z,16.00
2018-06-13T23:11:31.154Z,19.57
2018-06-13T23:14:03.945Z,13.57
2018-06-13T23:16:36.374Z,12.93
2018-06-13T23:19:08.793Z,13.13
2018-06-13T23:21:41.222Z,13.73
2018-06-13T23:24:13.633Z,12.73
2018-06-13T23:26:46.076Z,14.23
2018-06-13T23:29:18.490Z,15.67
2018-06-13T23:31:51.235Z,11.17
2018-06-13T23:34:23.649Z,9.63
2018-06-13T23:36:56.062Z,9.60
2018-06-13T23:39:28.492Z,10.73
2018-06-13T23:42:01.466Z,11.83
2018-06-13T23:44:33.882Z,11.90
2018-06-13T23:47:06.341Z,10.30
2018-06-13T23:49:38.989Z,9.47
2018-06-13T23:52:11.661Z,8.97
2018-06-13T23:54:44.062Z,8.50
2018-06-13T23:57:16.721Z,10.20
2018-06-13T23:59:49.106Z,9.67
